sensor_id;sensor_type;location;lat;lon;timestamp;pressure;altitude;pressure_sealevel;temperature;humidity
35878;BME280;21982;49.804;24.072;2024-02-14T00:02:10;97393.22;;;6.12;64.43
35878;BME280;21982;49.804;24.072;2024-02-14T00:04:35;97381.50;;;6.06;64.16
35878;BME280;21982;49.804;24.072;2024-02-14T00:07:01;97398.41;;;6.03;64.16
35878;BME280;21982;49.804;24.072;2024-02-14T00:09:27;97314.34;;;5.44;64.05
35878;BME280;21982;49.804;24.072;2024-02-14T00:11:53;97375.06;;;6.00;63.83
35878;BME280;21982;49.804;24.072;2024-02-14T00:14:18;97411.09;;;6.08;64.17
35878;BME280;21982;49.804;24.072;2024-02-14T00:16:46;97330.69;;;5.63;64.16
35878;BME280;21982;49.804;24.072;2024-02-14T00:19:11;97363.59;;;5.76;64.18
35878;BME280;21982;49.804;24.072;2024-02-14T00:21:37;97383.38;;;5.88;63.48
35878;BME280;21982;49.804;24.072;2024-02-14T00:24:04;97195.63;;;4.72;63.71
35878;BME280;21982;49.804;24.072;2024-02-14T00:26:30;97399.66;;;5.91;63.51
35878;BME280;21982;49.804;24.072;2024-02-14T00:28:56;97331.44;;;5.48;63.49
35878;BME280;21982;49.804;24.072;2024-02-14T00:31:22;97415.84;;;6.04;63.35
35878;BME280;21982;49.804;24.072;2024-02-14T00:33:47;97423.06;;;6.02;63.52
35878;BME280;21982;49.804;24.072;2024-02-14T00:36:13;97398.84;;;5.91;63.56
35878;BME280;21982;49.804;24.072;2024-02-14T00:38:38;97421.09;;;6.04;63.67
35878;BME280;21982;49.804;24.072;2024-02-14T00:41:03;97422.38;;;6.00;62.98
35878;BME280;21982;49.804;24.072;2024-02-14T00:43:29;97327.47;;;5.44;62.89
35878;BME280;21982;49.804;24.072;2024-02-14T00:45:55;97426.00;;;5.99;63.16
35878;BME280;21982;49.804;24.072;2024-02-14T00:48:22;97435.53;;;6.00;63.09
35878;BME280;21982;49.804;24.072;2024-02-14T00:50:48;97418.78;;;6.01;62.62
35878;BME280;21982;49.804;24.072;2024-02-14T00:53:13;97390.91;;;5.83;62.58
35878;BME280;21982;49.804;24.072;2024-02-14T00:55:39;97394.88;;;5.87;62.45
35878;BME280;21982;49.804;24.072;2024-02-14T00:58:04;97425.38;;;6.05;62.64
35878;BME280;21982;49.804;24.072;2024-02-14T01:00:30;97379.06;;;5.79;62.47
35878;BME280;21982;49.804;24.072;2024-02-14T01:02:57;97359.16;;;5.76;62.12
35878;BME280;21982;49.804;24.072;2024-02-14T01:05:24;97380.09;;;5.86;61.87
35878;BME280;21982;49.804;24.072;2024-02-14T01:07:50;97440.38;;;6.13;62.15
35878;BME280;21982;49.804;24.072;2024-02-14T01:10:16;97363.84;;;5.64;62.01
35878;BME280;21982;49.804;24.072;2024-02-14T01:12:43;97416.47;;;5.98;61.69
35878;BME280;21982;49.804;24.072;2024-02-14T01:15:09;97333.69;;;5.43;61.83
35878;BME280;21982;49.804;24.072;2024-02-14T01:17:34;97325.09;;;5.32;61.80
35878;BME280;21982;49.804;24.072;2024-02-14T01:20:01;97392.34;;;5.77;62.03
35878;BME280;21982;49.804;24.072;2024-02-14T01:22:26;97342.41;;;5.43;61.64
35878;BME280;21982;49.804;24.072;2024-02-14T01:24:52;97398.75;;;5.75;61.90
35878;BME280;21982;49.804;24.072;2024-02-14T01:27:17;97356.06;;;5.47;61.52
35878;BME280;21982;49.804;24.072;2024-02-14T01:29:43;97444.41;;;5.99;61.92
35878;BME280;21982;49.804;24.072;2024-02-14T01:32:09;97389.66;;;5.69;61.60
35878;BME280;21982;49.804;24.072;2024-02-14T01:34:34;97381.31;;;5.73;61.81
35878;BME280;21982;49.804;24.072;2024-02-14T01:37:00;97457.47;;;5.91;61.85
35878;BME280;21982;49.804;24.072;2024-02-14T01:39:25;97402.38;;;5.56;61.42
35878;BME280;21982;49.804;24.072;2024-02-14T01:41:51;97452.31;;;5.82;61.92
35878;BME280;21982;49.804;24.072;2024-02-14T01:44:17;97456.28;;;5.86;61.93
35878;BME280;21982;49.804;24.072;2024-02-14T01:46:44;97450.88;;;5.87;61.96
35878;BME280;21982;49.804;24.072;2024-02-14T01:49:13;97443.00;;;5.87;61.18
35878;BME280;21982;49.804;24.072;2024-02-14T01:51:42;97447.88;;;5.82;61.77
35878;BME280;21982;49.804;24.072;2024-02-14T01:54:10;97388.53;;;5.46;61.70
35878;BME280;21982;49.804;24.072;2024-02-14T01:56:36;97385.56;;;5.41;61.67
35878;BME280;21982;49.804;24.072;2024-02-14T01:59:03;97453.16;;;5.82;61.64
35878;BME280;21982;49.804;24.072;2024-02-14T02:01:31;97456.59;;;5.83;61.87
35878;BME280;21982;49.804;24.072;2024-02-14T02:03:58;97428.03;;;5.62;61.54
35878;BME280;21982;49.804;24.072;2024-02-14T02:06:24;97468.59;;;5.85;61.41
35878;BME280;21982;49.804;24.072;2024-02-14T02:08:51;97461.69;;;5.84;61.38
35878;BME280;21982;49.804;24.072;2024-02-14T02:11:17;97395.84;;;5.34;61.08
35878;BME280;21982;49.804;24.072;2024-02-14T02:13:42;97469.84;;;5.73;61.42
35878;BME280;21982;49.804;24.072;2024-02-14T02:16:08;97469.84;;;5.73;61.43
35878;BME280;21982;49.804;24.072;2024-02-14T02:18:34;97451.69;;;5.62;61.70
35878;BME280;21982;49.804;24.072;2024-02-14T02:21:00;97368.97;;;5.14;60.92
35878;BME280;21982;49.804;24.072;2024-02-14T02:23:28;97486.69;;;5.88;61.61
35878;BME280;21982;49.804;24.072;2024-02-14T02:25:54;97330.13;;;5.00;61.06
35878;BME280;21982;49.804;24.072;2024-02-14T02:28:19;97375.56;;;5.18;60.97
35878;BME280;21982;49.804;24.072;2024-02-14T02:30:45;97478.69;;;5.72;61.37
35878;BME280;21982;49.804;24.072;2024-02-14T02:33:11;97491.16;;;5.70;61.44
35878;BME280;21982;49.804;24.072;2024-02-14T02:35:37;97488.38;;;5.71;61.72
35878;BME280;21982;49.804;24.072;2024-02-14T02:38:03;97285.06;;;4.43;62.16
35878;BME280;21982;49.804;24.072;2024-02-14T02:40:28;97487.94;;;5.58;61.69
35878;BME280;21982;49.804;24.072;2024-02-14T02:42:54;97510.41;;;5.53;62.06
35878;BME280;21982;49.804;24.072;2024-02-14T02:45:19;97204.63;;;3.73;61.93
35878;BME280;21982;49.804;24.072;2024-02-14T02:47:46;97383.59;;;4.81;61.96
35878;BME280;21982;49.804;24.072;2024-02-14T02:50:13;97476.63;;;5.40;62.53
35878;BME280;21982;49.804;24.072;2024-02-14T02:52:38;97482.09;;;5.29;62.29
35878;BME280;21982;49.804;24.072;2024-02-14T02:55:06;97464.19;;;5.24;62.33
35878;BME280;21982;49.804;24.072;2024-02-14T02:57:31;97510.31;;;5.45;62.67
35878;BME280;21982;49.804;24.072;2024-02-14T03:00:03;97518.50;;;5.42;62.57
35878;BME280;21982;49.804;24.072;2024-02-14T03:02:30;97489.84;;;5.30;62.45
35878;BME280;21982;49.804;24.072;2024-02-14T03:04:56;97445.28;;;5.03;62.68
35878;BME280;21982;49.804;24.072;2024-02-14T03:07:21;97520.69;;;5.46;62.69
35878;BME280;21982;49.804;24.072;2024-02-14T03:09:48;97401.88;;;4.73;62.77
35878;BME280;21982;49.804;24.072;2024-02-14T03:12:14;97457.34;;;4.96;62.56
35878;BME280;21982;49.804;24.072;2024-02-14T03:14:41;97530.44;;;5.36;63.17
35878;BME280;21982;49.804;24.072;2024-02-14T03:17:08;97534.31;;;5.32;62.86
35878;BME280;21982;49.804;24.072;2024-02-14T03:19:35;97467.75;;;4.88;63.02
35878;BME280;21982;49.804;24.072;2024-02-14T03:22:05;97471.97;;;4.98;62.99
35878;BME280;21982;49.804;24.072;2024-02-14T03:24:34;97534.19;;;5.33;62.83
35878;BME280;21982;49.804;24.072;2024-02-14T03:27:03;97535.81;;;5.34;63.04
35878;BME280;21982;49.804;24.072;2024-02-14T03:29:29;97484.72;;;4.93;62.71
35878;BME280;21982;49.804;24.072;2024-02-14T03:31:55;97545.94;;;5.29;62.83
35878;BME280;21982;49.804;24.072;2024-02-14T03:34:24;97484.13;;;4.82;62.96
35878;BME280;21982;49.804;24.072;2024-02-14T03:36:50;97541.00;;;5.26;63.12
35878;BME280;21982;49.804;24.072;2024-02-14T03:39:16;97540.53;;;5.31;62.94
35878;BME280;21982;49.804;24.072;2024-02-14T03:41:42;97544.00;;;5.31;62.92
35878;BME280;21982;49.804;24.072;2024-02-14T03:44:08;97547.31;;;5.33;62.55
35878;BME280;21982;49.804;24.072;2024-02-14T03:46:34;97555.34;;;5.32;62.86
35878;BME280;21982;49.804;24.072;2024-02-14T03:49:00;97550.22;;;5.30;62.57
35878;BME280;21982;49.804;24.072;2024-02-14T03:51:25;97530.53;;;4.99;62.97
35878;BME280;21982;49.804;24.072;2024-02-14T03:53:51;97540.47;;;5.23;62.65
35878;BME280;21982;49.804;24.072;2024-02-14T03:56:16;97466.25;;;4.67;62.57
35878;BME280;21982;49.804;24.072;2024-02-14T03:58:42;97491.31;;;4.80;62.28
35878;BME280;21982;49.804;24.072;2024-02-14T04:01:08;97542.78;;;5.08;62.33
35878;BME280;21982;49.804;24.072;2024-02-14T04:03:34;97536.84;;;5.06;62.60
35878;BME280;21982;49.804;24.072;2024-02-14T04:05:59;97552.47;;;5.08;62.19
35878;BME280;21982;49.804;24.072;2024-02-14T04:08:25;97569.41;;;5.13;62.28
35878;BME280;21982;49.804;24.072;2024-02-14T04:10:51;97567.63;;;5.14;62.18
35878;BME280;21982;49.804;24.072;2024-02-14T04:13:19;97580.16;;;5.20;62.13
35878;BME280;21982;49.804;24.072;2024-02-14T04:15:44;97568.00;;;5.19;62.30
35878;BME280;21982;49.804;24.072;2024-02-14T04:18:10;97571.00;;;5.24;62.33
35878;BME280;21982;49.804;24.072;2024-02-14T04:20:36;97579.69;;;5.24;62.31
35878;BME280;21982;49.804;24.072;2024-02-14T04:23:01;97578.34;;;5.20;62.49
35878;BME280;21982;49.804;24.072;2024-02-14T04:25:27;97587.22;;;5.19;62.24
35878;BME280;21982;49.804;24.072;2024-02-14T04:27:52;97410.25;;;4.14;62.27
35878;BME280;21982;49.804;24.072;2024-02-14T04:30:17;97575.34;;;5.15;62.24
35878;BME280;21982;49.804;24.072;2024-02-14T04:32:43;97529.97;;;4.78;62.56
35878;BME280;21982;49.804;24.072;2024-02-14T04:35:09;97556.09;;;4.97;62.63
35878;BME280;21982;49.804;24.072;2024-02-14T04:37:35;97556.09;;;4.97;62.49
35878;BME280;21982;49.804;24.072;2024-02-14T04:40:02;97579.25;;;5.11;62.46
35878;BME280;21982;49.804;24.072;2024-02-14T04:42:29;97583.66;;;5.11;62.42
35878;BME280;21982;49.804;24.072;2024-02-14T04:44:54;97577.44;;;5.12;62.33
35878;BME280;21982;49.804;24.072;2024-02-14T04:47:20;97588.91;;;5.11;62.39
35878;BME280;21982;49.804;24.072;2024-02-14T04:49:46;97534.66;;;4.84;62.58
35878;BME280;21982;49.804;24.072;2024-02-14T04:52:11;97419.38;;;4.10;62.09
35878;BME280;21982;49.804;24.072;2024-02-14T04:54:36;97552.94;;;4.93;62.14
35878;BME280;21982;49.804;24.072;2024-02-14T04:57:02;97592.59;;;5.18;62.05
35878;BME280;21982;49.804;24.072;2024-02-14T04:59:29;97550.47;;;4.92;61.79
35878;BME280;21982;49.804;24.072;2024-02-14T05:01:55;97594.91;;;5.21;62.06
35878;BME280;21982;49.804;24.072;2024-02-14T05:04:21;97598.38;;;5.21;61.81
35878;BME280;21982;49.804;24.072;2024-02-14T05:06:48;97570.00;;;5.07;61.75
35878;BME280;21982;49.804;24.072;2024-02-14T05:09:13;97602.34;;;5.25;61.73
35878;BME280;21982;49.804;24.072;2024-02-14T05:11:40;97550.84;;;4.97;61.71
35878;BME280;21982;49.804;24.072;2024-02-14T05:14:05;97544.63;;;4.98;61.34
35878;BME280;21982;49.804;24.072;2024-02-14T05:16:31;97600.25;;;5.29;61.39
35878;BME280;21982;49.804;24.072;2024-02-14T05:18:56;97536.13;;;4.86;61.12
35878;BME280;21982;49.804;24.072;2024-02-14T05:21:21;97586.22;;;5.20;60.94
35878;BME280;21982;49.804;24.072;2024-02-14T05:23:47;97608.97;;;5.29;60.98
35878;BME280;21982;49.804;24.072;2024-02-14T05:26:13;97568.75;;;5.11;60.94
35878;BME280;21982;49.804;24.072;2024-02-14T05:28:38;97607.56;;;5.35;60.85
35878;BME280;21982;49.804;24.072;2024-02-14T05:31:05;97554.41;;;5.05;60.69
35878;BME280;21982;49.804;24.072;2024-02-14T05:33:30;97615.53;;;5.43;60.39
35878;BME280;21982;49.804;24.072;2024-02-14T05:35:57;97562.22;;;5.15;60.24
35878;BME280;21982;49.804;24.072;2024-02-14T05:38:22;97562.59;;;5.20;60.55
35878;BME280;21982;49.804;24.072;2024-02-14T05:40:49;97600.28;;;5.47;60.19
35878;BME280;21982;49.804;24.072;2024-02-14T05:43:15;97541.38;;;5.14;59.90
35878;BME280;21982;49.804;24.072;2024-02-14T05:45:40;97415.38;;;4.33;59.94
35878;BME280;21982;49.804;24.072;2024-02-14T05:48:07;97628.94;;;5.58;59.63
35878;BME280;21982;49.804;24.072;2024-02-14T05:50:33;97624.00;;;5.55;59.63
35878;BME280;21982;49.804;24.072;2024-02-14T05:52:58;97523.53;;;4.90;59.47
35878;BME280;21982;49.804;24.072;2024-02-14T05:55:24;97546.03;;;4.92;59.57
35878;BME280;21982;49.804;24.072;2024-02-14T05:57:52;97630.47;;;5.60;59.13
35878;BME280;21982;49.804;24.072;2024-02-14T06:00:19;97493.97;;;4.70;58.95
35878;BME280;21982;49.804;24.072;2024-02-14T06:02:46;97639.59;;;5.56;59.08
35878;BME280;21982;49.804;24.072;2024-02-14T06:05:12;97625.59;;;5.48;58.87
35878;BME280;21982;49.804;24.072;2024-02-14T06:07:38;97578.66;;;5.17;58.65
35878;BME280;21982;49.804;24.072;2024-02-14T06:10:03;97546.56;;;4.96;58.65
35878;BME280;21982;49.804;24.072;2024-02-14T06:12:29;97604.78;;;5.36;58.49
35878;BME280;21982;49.804;24.072;2024-02-14T06:14:57;97666.94;;;5.63;58.47
35878;BME280;21982;49.804;24.072;2024-02-14T06:17:23;97580.66;;;5.23;58.77
35878;BME280;21982;49.804;24.072;2024-02-14T06:19:48;97541.72;;;5.01;58.47
35878;BME280;21982;49.804;24.072;2024-02-14T06:22:13;97640.06;;;5.52;58.29
35878;BME280;21982;49.804;24.072;2024-02-14T06:24:39;97604.78;;;5.36;57.79
35878;BME280;21982;49.804;24.072;2024-02-14T06:27:04;97607.50;;;5.45;58.04
35878;BME280;21982;49.804;24.072;2024-02-14T06:29:30;97661.19;;;5.78;57.96
35878;BME280;21982;49.804;24.072;2024-02-14T06:31:55;97648.25;;;5.66;57.84
35878;BME280;21982;49.804;24.072;2024-02-14T06:34:21;97657.16;;;5.83;58.03
35878;BME280;21982;49.804;24.072;2024-02-14T06:36:47;97655.75;;;5.89;57.76
35878;BME280;21982;49.804;24.072;2024-02-14T06:39:12;97651.88;;;5.83;57.61
35878;BME280;21982;49.804;24.072;2024-02-14T06:41:38;97659.31;;;5.88;57.58
35878;BME280;21982;49.804;24.072;2024-02-14T06:44:06;97612.91;;;5.61;57.40
35878;BME280;21982;49.804;24.072;2024-02-14T06:46:33;97673.69;;;5.93;57.48
35878;BME280;21982;49.804;24.072;2024-02-14T06:48:58;97587.84;;;5.49;57.13
35878;BME280;21982;49.804;24.072;2024-02-14T06:51:24;97634.69;;;5.71;56.92
35878;BME280;21982;49.804;24.072;2024-02-14T06:53:50;97662.88;;;5.96;57.04
35878;BME280;21982;49.804;24.072;2024-02-14T06:56:15;97554.94;;;5.27;56.85
35878;BME280;21982;49.804;24.072;2024-02-14T06:58:41;97621.84;;;5.68;56.16
35878;BME280;21982;49.804;24.072;2024-02-14T07:01:06;97677.22;;;6.02;56.99
35878;BME280;21982;49.804;24.072;2024-02-14T07:03:32;97678.44;;;6.08;56.81
35878;BME280;21982;49.804;24.072;2024-02-14T07:05:57;97575.97;;;5.45;56.77
35878;BME280;21982;49.804;24.072;2024-02-14T07:08:23;97654.00;;;5.97;56.46
35878;BME280;21982;49.804;24.072;2024-02-14T07:10:51;97662.34;;;6.11;56.28
35878;BME280;21982;49.804;24.072;2024-02-14T07:13:16;97684.84;;;6.31;56.35
35878;BME280;21982;49.804;24.072;2024-02-14T07:15:42;97581.75;;;5.66;56.18
35878;BME280;21982;49.804;24.072;2024-02-14T07:18:07;97535.53;;;5.37;56.03
35878;BME280;21982;49.804;24.072;2024-02-14T07:20:35;97687.34;;;6.32;56.23
35878;BME280;21982;49.804;24.072;2024-02-14T07:23:01;97690.34;;;6.37;55.93
35878;BME280;21982;49.804;24.072;2024-02-14T07:25:26;97641.00;;;6.14;55.64
35878;BME280;21982;49.804;24.072;2024-02-14T07:27:52;97656.22;;;6.28;55.67
35878;BME280;21982;49.804;24.072;2024-02-14T07:30:18;97647.22;;;6.30;55.45
35878;BME280;21982;49.804;24.072;2024-02-14T07:32:44;97640.97;;;6.31;55.49
35878;BME280;21982;49.804;24.072;2024-02-14T07:35:10;97703.97;;;6.59;55.82
35878;BME280;21982;49.804;24.072;2024-02-14T07:37:36;97686.16;;;6.70;55.70
35878;BME280;21982;49.804;24.072;2024-02-14T07:40:01;97497.50;;;5.42;54.87
35878;BME280;21982;49.804;24.072;2024-02-14T07:42:27;97527.94;;;5.70;55.63
35878;BME280;21982;49.804;24.072;2024-02-14T07:44:52;97621.06;;;6.29;55.39
35878;BME280;21982;49.804;24.072;2024-02-14T07:47:19;97702.66;;;6.81;55.71
35878;BME280;21982;49.804;24.072;2024-02-14T07:49:44;97652.19;;;6.59;54.99
35878;BME280;21982;49.804;24.072;2024-02-14T07:52:10;97650.59;;;6.66;54.83
35878;BME280;21982;49.804;24.072;2024-02-14T07:54:35;97692.44;;;7.03;54.86
35878;BME280;21982;49.804;24.072;2024-02-14T07:57:01;97635.22;;;6.80;54.91
35878;BME280;21982;49.804;24.072;2024-02-14T07:59:26;97624.06;;;6.86;54.70
35878;BME280;21982;49.804;24.072;2024-02-14T08:01:52;97646.56;;;7.14;54.34
35878;BME280;21982;49.804;24.072;2024-02-14T08:04:18;97626.72;;;6.94;53.72
35878;BME280;21982;49.804;24.072;2024-02-14T08:06:46;97659.28;;;7.19;53.45
35878;BME280;21982;49.804;24.072;2024-02-14T08:09:14;97541.97;;;6.48;53.31
35878;BME280;21982;49.804;24.072;2024-02-14T08:11:39;97693.94;;;7.40;53.01
35878;BME280;21982;49.804;24.072;2024-02-14T08:14:05;97540.34;;;6.21;52.73
35878;BME280;21982;49.804;24.072;2024-02-14T08:16:30;97704.09;;;7.27;52.65
35878;BME280;21982;49.804;24.072;2024-02-14T08:18:57;97711.81;;;7.28;53.33
35878;BME280;21982;49.804;24.072;2024-02-14T08:21:27;97654.75;;;7.03;52.79
35878;BME280;21982;49.804;24.072;2024-02-14T08:23:53;97720.06;;;7.33;52.32
35878;BME280;21982;49.804;24.072;2024-02-14T08:26:23;97653.88;;;6.94;52.48
35878;BME280;21982;49.804;24.072;2024-02-14T08:28:49;97722.19;;;7.22;52.68
35878;BME280;21982;49.804;24.072;2024-02-14T08:31:15;97675.66;;;7.04;52.19
35878;BME280;21982;49.804;24.072;2024-02-14T08:33:41;97596.00;;;6.68;52.42
35878;BME280;21982;49.804;24.072;2024-02-14T08:36:06;97720.81;;;7.52;51.42
35878;BME280;21982;49.804;24.072;2024-02-14T08:38:35;97699.88;;;7.42;51.79
35878;BME280;21982;49.804;24.072;2024-02-14T08:41:01;97687.63;;;7.33;51.98
35878;BME280;21982;49.804;24.072;2024-02-14T08:43:27;97718.91;;;7.62;51.18
35878;BME280;21982;49.804;24.072;2024-02-14T08:45:56;97727.97;;;7.67;51.39
35878;BME280;21982;49.804;24.072;2024-02-14T08:48:22;97730.44;;;7.61;51.01
35878;BME280;21982;49.804;24.072;2024-02-14T08:50:48;97710.84;;;7.29;51.24
35878;BME280;21982;49.804;24.072;2024-02-14T08:53:13;97701.94;;;7.22;51.24
35878;BME280;21982;49.804;24.072;2024-02-14T08:55:42;97729.31;;;7.37;51.10
35878;BME280;21982;49.804;24.072;2024-02-14T08:58:08;97734.53;;;7.21;51.15
35878;BME280;21982;49.804;24.072;2024-02-14T09:00:37;97652.53;;;6.56;51.23
35878;BME280;21982;49.804;24.072;2024-02-14T09:03:03;97626.38;;;6.37;51.14
35878;BME280;21982;49.804;24.072;2024-02-14T09:05:29;97741.38;;;7.14;50.78
35878;BME280;21982;49.804;24.072;2024-02-14T09:07:54;97733.69;;;7.21;50.84
35878;BME280;21982;49.804;24.072;2024-02-14T09:10:20;97737.97;;;7.22;50.75
35878;BME280;21982;49.804;24.072;2024-02-14T09:12:46;97738.38;;;7.09;50.52
35878;BME280;21982;49.804;24.072;2024-02-14T09:15:11;97740.28;;;6.99;50.91
35878;BME280;21982;49.804;24.072;2024-02-14T09:17:38;97734.25;;;6.81;50.63
35878;BME280;21982;49.804;24.072;2024-02-14T09:20:06;97694.94;;;6.61;50.98
35878;BME280;21982;49.804;24.072;2024-02-14T09:22:35;97737.34;;;7.02;50.95
35878;BME280;21982;49.804;24.072;2024-02-14T09:25:01;97749.22;;;7.06;50.89
35878;BME280;21982;49.804;24.072;2024-02-14T09:27:32;97723.56;;;7.08;50.91
35878;BME280;21982;49.804;24.072;2024-02-14T09:29:58;97746.41;;;7.33;50.60
35878;BME280;21982;49.804;24.072;2024-02-14T09:32:25;97751.06;;;7.39;50.62
35878;BME280;21982;49.804;24.072;2024-02-14T09:34:50;97744.97;;;7.39;51.00
35878;BME280;21982;49.804;24.072;2024-02-14T09:37:16;97630.22;;;6.68;50.39
35878;BME280;21982;49.804;24.072;2024-02-14T09:39:41;97521.59;;;5.98;50.37
35878;BME280;21982;49.804;24.072;2024-02-14T09:42:12;97751.72;;;7.42;50.67
35878;BME280;21982;49.804;24.072;2024-02-14T09:44:43;97748.59;;;7.38;50.80
35878;BME280;21982;49.804;24.072;2024-02-14T09:47:09;97751.31;;;7.28;50.68
35878;BME280;21982;49.804;24.072;2024-02-14T09:49:35;97755.59;;;7.29;50.14
35878;BME280;21982;49.804;24.072;2024-02-14T09:52:02;97744.09;;;7.30;50.37
35878;BME280;21982;49.804;24.072;2024-02-14T09:54:29;97769.97;;;7.35;50.35
35878;BME280;21982;49.804;24.072;2024-02-14T09:56:57;97760.94;;;7.37;50.66
35878;BME280;21982;49.804;24.072;2024-02-14T09:59:23;97751.22;;;7.38;50.29
35878;BME280;21982;49.804;24.072;2024-02-14T10:01:49;97759.78;;;7.40;50.71
35878;BME280;21982;49.804;24.072;2024-02-14T10:04:16;97748.78;;;7.45;50.40
35878;BME280;21982;49.804;24.072;2024-02-14T10:06:45;97663.56;;;6.94;50.83
35878;BME280;21982;49.804;24.072;2024-02-14T10:09:10;97750.44;;;7.46;50.20
35878;BME280;21982;49.804;24.072;2024-02-14T10:11:37;97746.56;;;7.58;50.04
35878;BME280;21982;49.804;24.072;2024-02-14T10:14:04;97726.78;;;7.54;50.34
35878;BME280;21982;49.804;24.072;2024-02-14T10:16:35;97678.91;;;7.32;49.63
35878;BME280;21982;49.804;24.072;2024-02-14T10:19:01;97745.56;;;7.67;50.15
35878;BME280;21982;49.804;24.072;2024-02-14T10:21:26;97681.69;;;7.23;49.94
35878;BME280;21982;49.804;24.072;2024-02-14T10:23:53;97731.56;;;7.58;49.79
35878;BME280;21982;49.804;24.072;2024-02-14T10:26:21;97752.19;;;7.71;49.33
35878;BME280;21982;49.804;24.072;2024-02-14T10:28:47;97713.59;;;7.54;49.33
35878;BME280;21982;49.804;24.072;2024-02-14T10:31:12;97748.91;;;7.77;48.80
35878;BME280;21982;49.804;24.072;2024-02-14T10:33:38;97738.56;;;7.84;49.11
35878;BME280;21982;49.804;24.072;2024-02-14T10:36:07;97667.16;;;7.53;48.93
35878;BME280;21982;49.804;24.072;2024-02-14T10:38:33;97744.75;;;8.17;49.10
35878;BME280;21982;49.804;24.072;2024-02-14T10:41:00;97739.47;;;8.17;48.69
35878;BME280;21982;49.804;24.072;2024-02-14T10:43:26;97702.81;;;7.81;48.68
35878;BME280;21982;49.804;24.072;2024-02-14T10:45:56;97734.72;;;8.28;48.51
35878;BME280;21982;49.804;24.072;2024-02-14T10:48:24;97670.19;;;7.98;48.81
35878;BME280;21982;49.804;24.072;2024-02-14T10:50:53;97739.22;;;8.44;48.37
35878;BME280;21982;49.804;24.072;2024-02-14T10:53:20;97746.28;;;8.35;48.67
35878;BME280;21982;49.804;24.072;2024-02-14T10:55:48;97743.63;;;8.35;47.94
35878;BME280;21982;49.804;24.072;2024-02-14T10:58:16;97718.19;;;8.10;48.08
35878;BME280;21982;49.804;24.072;2024-02-14T11:00:42;97733.19;;;8.10;48.33
35878;BME280;21982;49.804;24.072;2024-02-14T11:03:09;97683.00;;;7.69;48.28
35878;BME280;21982;49.804;24.072;2024-02-14T11:05:48;97593.59;;;7.17;48.66
35878;BME280;21982;49.804;24.072;2024-02-14T11:08:18;97741.06;;;8.01;48.84
35878;BME280;21982;49.804;24.072;2024-02-14T11:10:53;97698.19;;;7.83;48.10
35878;BME280;21982;49.804;24.072;2024-02-14T11:13:19;97738.16;;;8.13;48.36
35878;BME280;21982;49.804;24.072;2024-02-14T11:15:45;97742.13;;;8.17;47.75
35878;BME280;21982;49.804;24.072;2024-02-14T11:18:13;97699.97;;;8.65;48.24
35878;BME280;21982;49.804;24.072;2024-02-14T11:20:49;97685.66;;;9.15;46.92
35878;BME280;21982;49.804;24.072;2024-02-14T11:23:21;97656.41;;;9.25;46.13
35878;BME280;21982;49.804;24.072;2024-02-14T11:25:47;97646.38;;;9.12;45.97
35878;BME280;21982;49.804;24.072;2024-02-14T11:28:17;97734.91;;;9.55;45.71
35878;BME280;21982;49.804;24.072;2024-02-14T11:30:45;97735.44;;;9.51;45.95
35878;BME280;21982;49.804;24.072;2024-02-14T11:33:16;97736.41;;;9.58;45.43
35878;BME280;21982;49.804;24.072;2024-02-14T11:35:46;97733.59;;;9.59;45.28
35878;BME280;21982;49.804;24.072;2024-02-14T11:38:11;97731.03;;;9.74;45.45
35878;BME280;21982;49.804;24.072;2024-02-14T11:40:37;97738.59;;;9.85;44.99
35878;BME280;21982;49.804;24.072;2024-02-14T11:43:17;97690.78;;;9.95;45.16
35878;BME280;21982;49.804;24.072;2024-02-14T11:45:44;97729.81;;;10.24;45.01
35878;BME280;21982;49.804;24.072;2024-02-14T11:48:13;97668.81;;;9.86;44.70
35878;BME280;21982;49.804;24.072;2024-02-14T11:50:40;97710.81;;;10.43;44.53
35878;BME280;21982;49.804;24.072;2024-02-14T11:53:06;97727.16;;;11.07;44.25
35878;BME280;21982;49.804;24.072;2024-02-14T11:55:39;97602.47;;;10.56;43.71
35878;BME280;21982;49.804;24.072;2024-02-14T11:58:12;97722.06;;;11.35;43.18
35878;BME280;21982;49.804;24.072;2024-02-14T12:00:39;97671.75;;;10.97;43.76
35878;BME280;21982;49.804;24.072;2024-02-14T12:03:23;97725.41;;;11.43;43.22
35878;BME280;21982;49.804;24.072;2024-02-14T12:05:52;97720.41;;;11.34;42.86
35878;BME280;21982;49.804;24.072;2024-02-14T12:08:19;97716.19;;;11.25;42.84
35878;BME280;21982;49.804;24.072;2024-02-14T12:10:45;97650.53;;;10.83;42.57
35878;BME280;21982;49.804;24.072;2024-02-14T12:13:20;97679.91;;;10.96;42.30
35878;BME280;21982;49.804;24.072;2024-02-14T12:15:48;97699.53;;;11.90;42.91
35878;BME280;21982;49.804;24.072;2024-02-14T12:18:15;97723.38;;;12.90;42.05
35878;BME280;21982;49.804;24.072;2024-02-14T12:20:41;97698.56;;;13.04;41.26
35878;BME280;21982;49.804;24.072;2024-02-14T12:23:14;97646.78;;;12.23;40.74
35878;BME280;21982;49.804;24.072;2024-02-14T12:25:40;97723.28;;;12.13;41.25
35878;BME280;21982;49.804;24.072;2024-02-14T12:28:06;97691.44;;;11.32;41.73
35878;BME280;21982;49.804;24.072;2024-02-14T12:30:48;97724.22;;;11.90;42.33
35878;BME280;21982;49.804;24.072;2024-02-14T12:33:15;97682.25;;;12.58;41.66
35878;BME280;21982;49.804;24.072;2024-02-14T12:35:45;97736.03;;;14.19;41.08
35878;BME280;21982;49.804;24.072;2024-02-14T12:38:11;97717.50;;;15.05;39.58
35878;BME280;21982;49.804;24.072;2024-02-14T12:40:37;97732.38;;;15.85;38.80
35878;BME280;21982;49.804;24.072;2024-02-14T12:43:03;97669.19;;;15.59;37.75
35878;BME280;21982;49.804;24.072;2024-02-14T12:45:31;97735.50;;;15.56;37.22
35878;BME280;21982;49.804;24.072;2024-02-14T12:47:57;97728.75;;;15.47;37.67
35878;BME280;21982;49.804;24.072;2024-02-14T12:50:22;97737.78;;;15.46;37.24
35878;BME280;21982;49.804;24.072;2024-02-14T12:52:47;97721.97;;;16.15;37.25
35878;BME280;21982;49.804;24.072;2024-02-14T12:55:14;97665.28;;;16.38;36.06
35878;BME280;21982;49.804;24.072;2024-02-14T12:57:39;97612.56;;;16.27;35.70